sensor_id;sensor_type;location;lat;lon;timestamp;P1;durP1;ratioP1;P2;durP2;ratioP2
75191;SDS011;63771;52.580;9.734;2023-03-13T00:00:54;13.25;;;4.18;;
75191;SDS011;63771;52.580;9.734;2023-03-13T00:03:20;15.00;;;4.10;;
75191;SDS011;63771;52.580;9.734;2023-03-13T00:05:47;10.80;;;4.97;;
75191;SDS011;63771;52.580;9.734;2023-03-13T00:08:12;10.80;;;3.60;;
75191;SDS011;63771;52.580;9.734;2023-03-13T00:10:38;14.48;;;3.78;;
75191;SDS011;63771;52.580;9.734;2023-03-13T00:13:05;11.32;;;3.20;;
75191;SDS011;63771;52.580;9.734;2023-03-13T00:15:32;15.85;;;4.53;;
75191;SDS011;63771;52.580;9.734;2023-03-13T00:17:58;15.18;;;4.32;;
75191;SDS011;63771;52.580;9.734;2023-03-13T00:20:23;19.13;;;3.85;;
75191;SDS011;63771;52.580;9.734;2023-03-13T00:22:49;18.10;;;4.20;;
75191;SDS011;63771;52.580;9.734;2023-03-13T00:25:14;17.70;;;3.40;;
75191;SDS011;63771;52.580;9.734;2023-03-13T00:27:40;18.35;;;4.22;;
75191;SDS011;63771;52.580;9.734;2023-03-13T00:30:05;14.97;;;3.53;;
75191;SDS011;63771;52.580;9.734;2023-03-13T00:32:31;19.13;;;3.90;;
75191;SDS011;63771;52.580;9.734;2023-03-13T00:34:56;12.80;;;4.93;;
75191;SDS011;63771;52.580;9.734;2023-03-13T00:37:22;13.33;;;3.20;;
75191;SDS011;63771;52.580;9.734;2023-03-13T00:39:47;12.57;;;3.13;;
75191;SDS011;63771;52.580;9.734;2023-03-13T00:42:12;12.40;;;2.80;;
75191;SDS011;63771;52.580;9.734;2023-03-13T00:44:38;15.25;;;3.67;;
75191;SDS011;63771;52.580;9.734;2023-03-13T00:47:03;12.37;;;3.17;;
75191;SDS011;63771;52.580;9.734;2023-03-13T00:49:29;8.82;;;2.75;;
75191;SDS011;63771;52.580;9.734;2023-03-13T00:51:55;14.43;;;3.15;;
75191;SDS011;63771;52.580;9.734;2023-03-13T00:54:20;12.83;;;4.27;;
75191;SDS011;63771;52.580;9.734;2023-03-13T00:56:45;15.10;;;3.33;;
75191;SDS011;63771;52.580;9.734;2023-03-13T00:59:11;18.67;;;3.80;;
75191;SDS011;63771;52.580;9.734;2023-03-13T01:01:37;12.00;;;3.90;;
75191;SDS011;63771;52.580;9.734;2023-03-13T01:04:07;18.60;;;3.40;;
75191;SDS011;63771;52.580;9.734;2023-03-13T01:06:35;14.90;;;2.97;;
75191;SDS011;63771;52.580;9.734;2023-03-13T01:09:02;9.63;;;3.78;;
75191;SDS011;63771;52.580;9.734;2023-03-13T01:11:30;11.05;;;3.08;;
75191;SDS011;63771;52.580;9.734;2023-03-13T01:13:58;13.75;;;3.50;;
75191;SDS011;63771;52.580;9.734;2023-03-13T01:16:26;6.72;;;2.53;;
75191;SDS011;63771;52.580;9.734;2023-03-13T01:18:54;9.32;;;2.38;;
75191;SDS011;63771;52.580;9.734;2023-03-13T01:21:21;15.02;;;3.28;;
75191;SDS011;63771;52.580;9.734;2023-03-13T01:23:48;12.25;;;2.88;;
75191;SDS011;63771;52.580;9.734;2023-03-13T01:26:14;10.07;;;3.80;;
75191;SDS011;63771;52.580;9.734;2023-03-13T01:28:40;13.43;;;3.33;;
75191;SDS011;63771;52.580;9.734;2023-03-13T01:33:42;12.23;;;3.10;;
75191;SDS011;63771;52.580;9.734;2023-03-13T01:36:08;6.38;;;3.85;;
75191;SDS011;63771;52.580;9.734;2023-03-13T01:38:34;10.95;;;2.70;;
75191;SDS011;63771;52.580;9.734;2023-03-13T01:41:00;11.93;;;2.90;;
75191;SDS011;63771;52.580;9.734;2023-03-13T01:43:27;17.77;;;4.05;;
75191;SDS011;63771;52.580;9.734;2023-03-13T01:48:30;13.95;;;3.22;;
75191;SDS011;63771;52.580;9.734;2023-03-13T01:51:02;12.05;;;2.97;;
75191;SDS011;63771;52.580;9.734;2023-03-13T01:53:32;5.97;;;2.38;;
75191;SDS011;63771;52.580;9.734;2023-03-13T01:56:00;9.45;;;3.55;;
75191;SDS011;63771;52.580;9.734;2023-03-13T01:58:30;8.10;;;2.25;;
75191;SDS011;63771;52.580;9.734;2023-03-13T02:00:56;18.25;;;3.38;;
75191;SDS011;63771;52.580;9.734;2023-03-13T02:03:22;17.35;;;3.28;;
75191;SDS011;63771;52.580;9.734;2023-03-13T02:05:48;11.13;;;3.15;;
75191;SDS011;63771;52.580;9.734;2023-03-13T02:08:20;13.18;;;3.83;;
75191;SDS011;63771;52.580;9.734;2023-03-13T02:10:57;14.48;;;3.45;;
75191;SDS011;63771;52.580;9.734;2023-03-13T02:13:45;12.43;;;3.03;;
75191;SDS011;63771;52.580;9.734;2023-03-13T02:16:11;13.52;;;3.10;;
75191;SDS011;63771;52.580;9.734;2023-03-13T02:18:37;11.15;;;2.92;;
75191;SDS011;63771;52.580;9.734;2023-03-13T02:21:10;12.23;;;2.75;;
75191;SDS011;63771;52.580;9.734;2023-03-13T02:24:01;12.63;;;4.03;;
75191;SDS011;63771;52.580;9.734;2023-03-13T02:26:53;8.48;;;3.58;;
75191;SDS011;63771;52.580;9.734;2023-03-13T02:29:18;18.77;;;3.70;;
75191;SDS011;63771;52.580;9.734;2023-03-13T02:31:45;12.10;;;3.17;;
75191;SDS011;63771;52.580;9.734;2023-03-13T02:34:12;12.00;;;2.88;;
75191;SDS011;63771;52.580;9.734;2023-03-13T02:36:41;13.88;;;3.65;;
75191;SDS011;63771;52.580;9.734;2023-03-13T02:39:08;17.27;;;3.45;;
75191;SDS011;63771;52.580;9.734;2023-03-13T02:41:37;10.55;;;3.35;;
75191;SDS011;63771;52.580;9.734;2023-03-13T02:46:35;13.27;;;3.20;;
75191;SDS011;63771;52.580;9.734;2023-03-13T02:49:19;11.07;;;2.42;;
75191;SDS011;63771;52.580;9.734;2023-03-13T02:51:48;13.85;;;2.35;;
75191;SDS011;63771;52.580;9.734;2023-03-13T02:54:19;16.73;;;2.80;;
75191;SDS011;63771;52.580;9.734;2023-03-13T02:56:48;9.38;;;2.95;;
75191;SDS011;63771;52.580;9.734;2023-03-13T02:59:19;11.80;;;3.85;;
75191;SDS011;63771;52.580;9.734;2023-03-13T03:01:44;11.30;;;3.27;;
75191;SDS011;63771;52.580;9.734;2023-03-13T03:04:10;11.20;;;3.40;;
75191;SDS011;63771;52.580;9.734;2023-03-13T03:06:35;13.98;;;3.10;;
75191;SDS011;63771;52.580;9.734;2023-03-13T03:09:01;11.85;;;2.75;;
75191;SDS011;63771;52.580;9.734;2023-03-13T03:11:26;13.20;;;2.85;;
75191;SDS011;63771;52.580;9.734;2023-03-13T03:13:52;6.93;;;2.90;;
75191;SDS011;63771;52.580;9.734;2023-03-13T03:16:18;7.53;;;3.00;;
75191;SDS011;63771;52.580;9.734;2023-03-13T03:18:43;12.10;;;3.27;;
75191;SDS011;63771;52.580;9.734;2023-03-13T03:21:08;13.33;;;2.97;;
75191;SDS011;63771;52.580;9.734;2023-03-13T03:23:34;7.80;;;2.85;;
75191;SDS011;63771;52.580;9.734;2023-03-13T03:26:00;16.00;;;4.32;;
75191;SDS011;63771;52.580;9.734;2023-03-13T03:28:27;12.50;;;3.47;;
75191;SDS011;63771;52.580;9.734;2023-03-13T03:30:53;15.07;;;2.85;;
75191;SDS011;63771;52.580;9.734;2023-03-13T03:33:21;8.10;;;3.70;;
75191;SDS011;63771;52.580;9.734;2023-03-13T03:35:48;11.82;;;3.33;;
75191;SDS011;63771;52.580;9.734;2023-03-13T03:38:13;9.20;;;3.33;;
75191;SDS011;63771;52.580;9.734;2023-03-13T03:40:39;6.85;;;2.45;;
75191;SDS011;63771;52.580;9.734;2023-03-13T03:43:04;16.83;;;3.37;;
75191;SDS011;63771;52.580;9.734;2023-03-13T03:45:29;11.07;;;3.10;;
75191;SDS011;63771;52.580;9.734;2023-03-13T03:47:55;16.80;;;3.67;;
75191;SDS011;63771;52.580;9.734;2023-03-13T03:50:23;8.82;;;3.08;;
75191;SDS011;63771;52.580;9.734;2023-03-13T03:52:51;13.52;;;4.97;;
75191;SDS011;63771;52.580;9.734;2023-03-13T03:55:17;15.67;;;3.13;;
75191;SDS011;63771;52.580;9.734;2023-03-13T03:57:43;12.77;;;3.65;;
75191;SDS011;63771;52.580;9.734;2023-03-13T04:00:08;8.67;;;3.27;;
75191;SDS011;63771;52.580;9.734;2023-03-13T04:02:36;18.63;;;3.08;;
75191;SDS011;63771;52.580;9.734;2023-03-13T04:05:02;10.10;;;3.20;;
75191;SDS011;63771;52.580;9.734;2023-03-13T04:07:28;12.27;;;3.83;;
75191;SDS011;63771;52.580;9.734;2023-03-13T04:09:53;9.90;;;2.85;;
75191;SDS011;63771;52.580;9.734;2023-03-13T04:12:19;10.77;;;3.25;;
75191;SDS011;63771;52.580;9.734;2023-03-13T04:14:44;14.23;;;2.97;;
75191;SDS011;63771;52.580;9.734;2023-03-13T04:17:09;19.00;;;3.87;;
75191;SDS011;63771;52.580;9.734;2023-03-13T04:19:35;12.17;;;2.77;;
75191;SDS011;63771;52.580;9.734;2023-03-13T04:22:00;6.57;;;2.97;;
75191;SDS011;63771;52.580;9.734;2023-03-13T04:24:25;15.03;;;3.40;;
75191;SDS011;63771;52.580;9.734;2023-03-13T04:26:50;7.57;;;2.73;;
75191;SDS011;63771;52.580;9.734;2023-03-13T04:29:16;12.73;;;3.57;;
75191;SDS011;63771;52.580;9.734;2023-03-13T04:31:41;8.27;;;2.60;;
75191;SDS011;63771;52.580;9.734;2023-03-13T04:34:06;10.53;;;2.73;;
75191;SDS011;63771;52.580;9.734;2023-03-13T04:36:32;11.83;;;4.03;;
75191;SDS011;63771;52.580;9.734;2023-03-13T04:38:57;13.53;;;3.83;;
75191;SDS011;63771;52.580;9.734;2023-03-13T04:41:22;17.50;;;3.73;;
75191;SDS011;63771;52.580;9.734;2023-03-13T04:43:48;14.23;;;3.00;;
75191;SDS011;63771;52.580;9.734;2023-03-13T04:46:13;13.53;;;2.63;;
75191;SDS011;63771;52.580;9.734;2023-03-13T04:48:38;8.63;;;3.03;;
75191;SDS011;63771;52.580;9.734;2023-03-13T04:51:04;6.97;;;2.70;;
75191;SDS011;63771;52.580;9.734;2023-03-13T04:53:29;11.45;;;3.05;;
75191;SDS011;63771;52.580;9.734;2023-03-13T04:55:54;11.77;;;2.90;;
75191;SDS011;63771;52.580;9.734;2023-03-13T04:58:20;6.53;;;3.03;;
75191;SDS011;63771;52.580;9.734;2023-03-13T05:00:45;11.57;;;2.63;;
75191;SDS011;63771;52.580;9.734;2023-03-13T05:03:10;11.40;;;2.83;;
75191;SDS011;63771;52.580;9.734;2023-03-13T05:05:35;12.90;;;3.13;;
75191;SDS011;63771;52.580;9.734;2023-03-13T05:08:01;16.13;;;3.27;;
75191;SDS011;63771;52.580;9.734;2023-03-13T05:10:26;7.57;;;2.85;;
75191;SDS011;63771;52.580;9.734;2023-03-13T05:12:52;10.77;;;2.67;;
75191;SDS011;63771;52.580;9.734;2023-03-13T05:15:17;13.43;;;3.37;;
75191;SDS011;63771;52.580;9.734;2023-03-13T05:17:42;6.47;;;3.13;;
75191;SDS011;63771;52.580;9.734;2023-03-13T05:20:08;7.80;;;3.07;;
75191;SDS011;63771;52.580;9.734;2023-03-13T05:22:35;15.15;;;2.78;;
75191;SDS011;63771;52.580;9.734;2023-03-13T05:25:01;10.85;;;3.35;;
75191;SDS011;63771;52.580;9.734;2023-03-13T05:27:26;4.77;;;2.40;;
75191;SDS011;63771;52.580;9.734;2023-03-13T05:29:51;13.32;;;3.17;;
75191;SDS011;63771;52.580;9.734;2023-03-13T05:32:17;12.60;;;2.40;;
75191;SDS011;63771;52.580;9.734;2023-03-13T05:34:42;12.10;;;3.05;;
75191;SDS011;63771;52.580;9.734;2023-03-13T05:37:07;7.17;;;2.27;;
75191;SDS011;63771;52.580;9.734;2023-03-13T05:39:33;5.33;;;2.20;;
75191;SDS011;63771;52.580;9.734;2023-03-13T05:41:58;10.93;;;3.07;;
75191;SDS011;63771;52.580;9.734;2023-03-13T05:44:23;6.28;;;2.38;;
75191;SDS011;63771;52.580;9.734;2023-03-13T05:46:49;7.23;;;2.17;;
75191;SDS011;63771;52.580;9.734;2023-03-13T05:49:14;5.33;;;1.90;;
75191;SDS011;63771;52.580;9.734;2023-03-13T05:51:39;4.00;;;2.23;;
75191;SDS011;63771;52.580;9.734;2023-03-13T05:54:05;7.00;;;2.10;;
75191;SDS011;63771;52.580;9.734;2023-03-13T05:56:30;4.65;;;1.98;;
75191;SDS011;63771;52.580;9.734;2023-03-13T05:58:55;8.07;;;2.37;;
75191;SDS011;63771;52.580;9.734;2023-03-13T06:01:21;9.10;;;2.10;;
75191;SDS011;63771;52.580;9.734;2023-03-13T06:03:46;5.32;;;2.50;;
75191;SDS011;63771;52.580;9.734;2023-03-13T06:06:11;7.30;;;2.42;;
75191;SDS011;63771;52.580;9.734;2023-03-13T06:08:37;6.15;;;2.55;;
75191;SDS011;63771;52.580;9.734;2023-03-13T06:11:02;5.85;;;2.15;;
75191;SDS011;63771;52.580;9.734;2023-03-13T06:13:28;2.22;;;1.73;;
75191;SDS011;63771;52.580;9.734;2023-03-13T06:15:54;3.67;;;2.15;;
75191;SDS011;63771;52.580;9.734;2023-03-13T06:18:21;6.57;;;2.38;;
75191;SDS011;63771;52.580;9.734;2023-03-13T06:20:48;9.63;;;2.08;;
75191;SDS011;63771;52.580;9.734;2023-03-13T06:23:14;5.00;;;2.33;;
75191;SDS011;63771;52.580;9.734;2023-03-13T06:25:40;3.30;;;1.88;;
75191;SDS011;63771;52.580;9.734;2023-03-13T06:28:05;3.63;;;1.88;;
75191;SDS011;63771;52.580;9.734;2023-03-13T06:30:30;8.03;;;2.27;;
75191;SDS011;63771;52.580;9.734;2023-03-13T06:32:56;3.00;;;2.53;;
75191;SDS011;63771;52.580;9.734;2023-03-13T06:35:22;5.05;;;1.67;;
75191;SDS011;63771;52.580;9.734;2023-03-13T06:37:48;3.95;;;1.95;;
75191;SDS011;63771;52.580;9.734;2023-03-13T06:40:13;4.27;;;1.80;;
75191;SDS011;63771;52.580;9.734;2023-03-13T06:42:39;4.65;;;1.35;;
75191;SDS011;63771;52.580;9.734;2023-03-13T06:45:04;7.75;;;2.72;;
75191;SDS011;63771;52.580;9.734;2023-03-13T06:47:30;6.95;;;3.72;;
75191;SDS011;63771;52.580;9.734;2023-03-13T06:49:56;3.65;;;1.77;;
75191;SDS011;63771;52.580;9.734;2023-03-13T06:52:22;2.45;;;1.75;;
75191;SDS011;63771;52.580;9.734;2023-03-13T06:54:47;5.17;;;2.97;;
75191;SDS011;63771;52.580;9.734;2023-03-13T06:57:12;8.60;;;2.07;;
75191;SDS011;63771;52.580;9.734;2023-03-13T06:59:38;7.83;;;2.50;;
75191;SDS011;63771;52.580;9.734;2023-03-13T07:02:03;8.75;;;2.30;;
75191;SDS011;63771;52.580;9.734;2023-03-13T07:04:29;4.03;;;1.88;;
75191;SDS011;63771;52.580;9.734;2023-03-13T07:06:54;3.85;;;1.90;;
75191;SDS011;63771;52.580;9.734;2023-03-13T07:09:19;2.17;;;2.00;;
75191;SDS011;63771;52.580;9.734;2023-03-13T07:11:45;3.25;;;1.73;;
75191;SDS011;63771;52.580;9.734;2023-03-13T07:14:11;3.33;;;1.70;;
75191;SDS011;63771;52.580;9.734;2023-03-13T07:16:36;4.82;;;2.17;;
75191;SDS011;63771;52.580;9.734;2023-03-13T07:19:02;3.40;;;1.50;;
75191;SDS011;63771;52.580;9.734;2023-03-13T07:21:27;3.70;;;1.30;;
75191;SDS011;63771;52.580;9.734;2023-03-13T07:23:52;2.87;;;1.87;;
75191;SDS011;63771;52.580;9.734;2023-03-13T07:26:18;3.90;;;2.20;;
75191;SDS011;63771;52.580;9.734;2023-03-13T07:28:44;4.05;;;1.73;;
75191;SDS011;63771;52.580;9.734;2023-03-13T07:31:17;2.37;;;1.33;;
75191;SDS011;63771;52.580;9.734;2023-03-13T07:33:44;3.17;;;2.05;;
75191;SDS011;63771;52.580;9.734;2023-03-13T07:36:10;1.98;;;1.88;;
75191;SDS011;63771;52.580;9.734;2023-03-13T07:38:36;2.05;;;1.90;;
75191;SDS011;63771;52.580;9.734;2023-03-13T07:41:02;2.80;;;1.73;;
75191;SDS011;63771;52.580;9.734;2023-03-13T07:43:28;3.60;;;1.80;;
75191;SDS011;63771;52.580;9.734;2023-03-13T07:45:56;1.60;;;1.50;;
75191;SDS011;63771;52.580;9.734;2023-03-13T07:48:35;3.30;;;2.05;;
75191;SDS011;63771;52.580;9.734;2023-03-13T07:51:03;2.85;;;2.10;;
75191;SDS011;63771;52.580;9.734;2023-03-13T07:53:29;1.40;;;1.40;;
75191;SDS011;63771;52.580;9.734;2023-03-13T07:56:04;3.33;;;1.80;;
75191;SDS011;63771;52.580;9.734;2023-03-13T07:58:40;2.15;;;1.83;;
75191;SDS011;63771;52.580;9.734;2023-03-13T08:01:23;3.40;;;2.10;;
75191;SDS011;63771;52.580;9.734;2023-03-13T08:03:49;2.55;;;2.42;;
75191;SDS011;63771;52.580;9.734;2023-03-13T08:06:19;3.92;;;2.00;;
75191;SDS011;63771;52.580;9.734;2023-03-13T08:08:47;3.08;;;2.13;;
75191;SDS011;63771;52.580;9.734;2023-03-13T08:11:14;2.83;;;2.30;;
75191;SDS011;63771;52.580;9.734;2023-03-13T08:13:41;3.17;;;2.50;;
75191;SDS011;63771;52.580;9.734;2023-03-13T08:16:14;2.67;;;2.47;;
75191;SDS011;63771;52.580;9.734;2023-03-13T08:18:42;4.18;;;2.42;;
75191;SDS011;63771;52.580;9.734;2023-03-13T08:21:10;3.00;;;2.80;;
75191;SDS011;63771;52.580;9.734;2023-03-13T08:23:40;3.40;;;3.20;;
75191;SDS011;63771;52.580;9.734;2023-03-13T08:26:07;4.40;;;4.00;;
75191;SDS011;63771;52.580;9.734;2023-03-13T08:28:40;5.70;;;3.55;;
75191;SDS011;63771;52.580;9.734;2023-03-13T08:31:13;3.95;;;2.97;;
75191;SDS011;63771;52.580;9.734;2023-03-13T08:33:43;5.82;;;3.00;;
75191;SDS011;63771;52.580;9.734;2023-03-13T08:36:14;3.00;;;2.80;;
75191;SDS011;63771;52.580;9.734;2023-03-13T08:38:41;6.05;;;3.13;;
75191;SDS011;63771;52.580;9.734;2023-03-13T08:41:08;4.20;;;3.67;;
75191;SDS011;63771;52.580;9.734;2023-03-13T08:43:35;4.22;;;3.80;;
75191;SDS011;63771;52.580;9.734;2023-03-13T08:46:00;2.85;;;2.63;;
75191;SDS011;63771;52.580;9.734;2023-03-13T08:48:25;3.10;;;2.87;;
75191;SDS011;63771;52.580;9.734;2023-03-13T08:51:00;3.57;;;3.27;;
75191;SDS011;63771;52.580;9.734;2023-03-13T08:53:28;3.83;;;3.53;;
75191;SDS011;63771;52.580;9.734;2023-03-13T08:55:53;3.83;;;3.03;;
75191;SDS011;63771;52.580;9.734;2023-03-13T08:58:19;3.75;;;3.47;;
75191;SDS011;63771;52.580;9.734;2023-03-13T09:00:44;4.13;;;3.20;;
75191;SDS011;63771;52.580;9.734;2023-03-13T09:03:09;2.75;;;2.65;;
75191;SDS011;63771;52.580;9.734;2023-03-13T09:05:38;5.10;;;3.20;;
75191;SDS011;63771;52.580;9.734;2023-03-13T09:08:04;3.45;;;3.22;;
75191;SDS011;63771;52.580;9.734;2023-03-13T09:10:31;3.25;;;3.05;;
75191;SDS011;63771;52.580;9.734;2023-03-13T09:12:57;3.95;;;3.58;;
75191;SDS011;63771;52.580;9.734;2023-03-13T09:15:22;5.07;;;3.53;;
75191;SDS011;63771;52.580;9.734;2023-03-13T09:17:47;2.93;;;2.77;;
75191;SDS011;63771;52.580;9.734;2023-03-13T09:20:13;3.25;;;2.88;;
75191;SDS011;63771;52.580;9.734;2023-03-13T09:22:38;3.00;;;2.77;;
75191;SDS011;63771;52.580;9.734;2023-03-13T09:25:03;3.30;;;2.70;;
75191;SDS011;63771;52.580;9.734;2023-03-13T09:27:29;3.72;;;2.70;;
75191;SDS011;63771;52.580;9.734;2023-03-13T09:29:54;4.73;;;2.67;;
75191;SDS011;63771;52.580;9.734;2023-03-13T09:32:20;4.05;;;2.42;;
75191;SDS011;63771;52.580;9.734;2023-03-13T09:34:45;2.83;;;2.50;;
75191;SDS011;63771;52.580;9.734;2023-03-13T09:37:11;2.67;;;2.08;;
75191;SDS011;63771;52.580;9.734;2023-03-13T09:39:36;2.55;;;2.33;;
75191;SDS011;63771;52.580;9.734;2023-03-13T09:42:05;2.80;;;2.60;;
75191;SDS011;63771;52.580;9.734;2023-03-13T09:44:45;2.20;;;2.10;;
75191;SDS011;63771;52.580;9.734;2023-03-13T09:47:23;2.47;;;2.28;;
75191;SDS011;63771;52.580;9.734;2023-03-13T09:50:31;3.22;;;2.25;;
75191;SDS011;63771;52.580;9.734;2023-03-13T09:52:52;3.45;;;2.17;;
75191;SDS011;63771;52.580;9.734;2023-03-13T09:55:33;2.75;;;2.17;;
75191;SDS011;63771;52.580;9.734;2023-03-13T09:58:03;3.58;;;2.03;;
75191;SDS011;63771;52.580;9.734;2023-03-13T10:00:37;2.35;;;2.10;;
75191;SDS011;63771;52.580;9.734;2023-03-13T10:03:06;2.08;;;1.85;;
75191;SDS011;63771;52.580;9.734;2023-03-13T10:05:54;2.72;;;2.15;;
75191;SDS011;63771;52.580;9.734;2023-03-13T10:08:26;1.92;;;1.83;;
75191;SDS011;63771;52.580;9.734;2023-03-13T10:10:56;3.83;;;1.88;;
75191;SDS011;63771;52.580;9.734;2023-03-13T10:13:31;2.78;;;2.10;;
75191;SDS011;63771;52.580;9.734;2023-03-13T10:16:03;3.75;;;2.25;;
75191;SDS011;63771;52.580;9.734;2023-03-13T10:18:35;2.20;;;2.00;;
75191;SDS011;63771;52.580;9.734;2023-03-13T10:21:06;2.70;;;2.50;;
75191;SDS011;63771;52.580;9.734;2023-03-13T10:23:43;2.53;;;2.20;;
75191;SDS011;63771;52.580;9.734;2023-03-13T10:26:26;4.00;;;2.28;;
75191;SDS011;63771;52.580;9.734;2023-03-13T10:28:54;2.58;;;2.30;;
75191;SDS011;63771;52.580;9.734;2023-03-13T10:31:39;2.85;;;2.65;;
75191;SDS011;63771;52.580;9.734;2023-03-13T10:34:09;4.18;;;2.40;;
75191;SDS011;63771;52.580;9.734;2023-03-13T10:36:42;2.28;;;2.17;;
75191;SDS011;63771;52.580;9.734;2023-03-13T10:39:13;6.10;;;2.20;;
75191;SDS011;63771;52.580;9.734;2023-03-13T10:41:45;3.30;;;2.17;;
75191;SDS011;63771;52.580;9.734;2023-03-13T10:44:19;3.33;;;2.22;;
75191;SDS011;63771;52.580;9.734;2023-03-13T10:46:47;4.05;;;2.10;;
75191;SDS011;63771;52.580;9.734;2023-03-13T10:49:15;2.47;;;2.22;;
75191;SDS011;63771;52.580;9.734;2023-03-13T10:51:46;2.85;;;2.10;;
75191;SDS011;63771;52.580;9.734;2023-03-13T10:57:06;2.60;;;2.40;;
75191;SDS011;63771;52.580;9.734;2023-03-13T10:59:32;2.63;;;2.22;;
75191;SDS011;63771;52.580;9.734;2023-03-13T11:02:16;2.90;;;2.17;;
75191;SDS011;63771;52.580;9.734;2023-03-13T11:04:44;2.25;;;2.13;;
75191;SDS011;63771;52.580;9.734;2023-03-13T11:07:14;2.25;;;2.10;;
75191;SDS011;63771;52.580;9.734;2023-03-13T11:09:58;2.92;;;2.10;;
75191;SDS011;63771;52.580;9.734;2023-03-13T11:12:48;2.80;;;2.33;;
75191;SDS011;63771;52.580;9.734;2023-03-13T11:15:38;2.80;;;2.60;;
75191;SDS011;63771;52.580;9.734;2023-03-13T11:23:29;4.93;;;2.33;;
75191;SDS011;63771;52.580;9.734;2023-03-13T11:28:54;4.60;;;2.47;;
75191;SDS011;63771;52.580;9.734;2023-03-13T11:31:33;4.72;;;3.30;;
75191;SDS011;63771;52.580;9.734;2023-03-13T11:34:05;4.18;;;2.28;;
75191;SDS011;63771;52.580;9.734;2023-03-13T11:36:56;3.05;;;2.42;;
75191;SDS011;63771;52.580;9.734;2023-03-13T11:45:27;2.45;;;2.25;;
75191;SDS011;63771;52.580;9.734;2023-03-13T11:51:06;3.85;;;2.35;;
75191;SDS011;63771;52.580;9.734;2023-03-13T12:01:50;4.15;;;2.63;;
75191;SDS011;63771;52.580;9.734;2023-03-13T12:04:27;2.92;;;2.70;;
75191;SDS011;63771;52.580;9.734;2023-03-13T12:09:38;2.17;;;2.03;;
75191;SDS011;63771;52.580;9.734;2023-03-13T12:15:19;4.15;;;2.67;;
75191;SDS011;63771;52.580;9.734;2023-03-13T12:20:41;2.65;;;1.90;;
75191;SDS011;63771;52.580;9.734;2023-03-13T12:23:16;3.70;;;1.95;;
75191;SDS011;63771;52.580;9.734;2023-03-13T12:26:00;3.00;;;1.83;;
75191;SDS011;63771;52.580;9.734;2023-03-13T12:28:34;3.83;;;2.42;;
75191;SDS011;63771;52.580;9.734;2023-03-13T12:39:33;3.80;;;2.25;;
75191;SDS011;63771;52.580;9.734;2023-03-13T12:44:48;1.80;;;1.70;;
75191;SDS011;63771;52.580;9.734;2023-03-13T12:47:33;1.88;;;1.77;;
75191;SDS011;63771;52.580;9.734;2023-03-13T13:00:54;4.25;;;2.10;;
75191;SDS011;63771;52.580;9.734;2023-03-13T13:03:38;1.70;;;1.35;;
75191;SDS011;63771;52.580;9.734;2023-03-13T13:06:13;2.85;;;1.88;;
75191;SDS011;63771;52.580;9.734;2023-03-13T13:08:45;2.25;;;1.73;;
75191;SDS011;63771;52.580;9.734;2023-03-13T13:14:35;4.43;;;1.70;;
75191;SDS011;63771;52.580;9.734;2023-03-13T13:17:00;1.80;;;1.70;;
75191;SDS011;63771;52.580;9.734;2023-03-13T13:27:53;3.72;;;1.70;;
75191;SDS011;63771;52.580;9.734;2023-03-13T13:32:45;2.53;;;2.43;;
75191;SDS011;63771;52.580;9.734;2023-03-13T13:35:23;2.10;;;1.95;;
75191;SDS011;63771;52.580;9.734;2023-03-13T13:37:51;1.88;;;1.77;;
75191;SDS011;63771;52.580;9.734;2023-03-13T13:40:22;1.73;;;1.63;;
75191;SDS011;63771;52.580;9.734;2023-03-13T13:42:49;2.05;;;1.88;;
75191;SDS011;63771;52.580;9.734;2023-03-13T13:47:43;1.60;;;1.47;;
75191;SDS011;63771;52.580;9.734;2023-03-13T13:50:17;3.58;;;1.65;;
75191;SDS011;63771;52.580;9.734;2023-03-13T13:52:47;5.10;;;1.55;;
75191;SDS011;63771;52.580;9.734;2023-03-13T13:57:45;1.60;;;1.50;;
75191;SDS011;63771;52.580;9.734;2023-03-13T14:02:52;1.83;;;1.70;;
75191;SDS011;63771;52.580;9.734;2023-03-13T14:05:26;4.93;;;1.70;;
75191;SDS011;63771;52.580;9.734;2023-03-13T14:07:58;2.08;;;1.60;;
75191;SDS011;63771;52.580;9.734;2023-03-13T14:10:36;5.05;;;2.35;;
75191;SDS011;63771;52.580;9.734;2023-03-13T14:13:11;2.33;;;1.40;;
75191;SDS011;63771;52.580;9.734;2023-03-13T14:15:39;1.60;;;1.50;;
75191;SDS011;63771;52.580;9.734;2023-03-13T14:18:19;2.35;;;1.52;;
75191;SDS011;63771;52.580;9.734;2023-03-13T14:20:51;2.65;;;1.40;;
75191;SDS011;63771;52.580;9.734;2023-03-13T14:23:35;1.20;;;1.10;;
75191;SDS011;63771;52.580;9.734;2023-03-13T14:26:10;2.17;;;1.60;;
75191;SDS011;63771;52.580;9.734;2023-03-13T14:28:47;1.33;;;1.23;;
75191;SDS011;63771;52.580;9.734;2023-03-13T14:33:56;1.25;;;1.15;;
75191;SDS011;63771;52.580;9.734;2023-03-13T14:36:24;1.48;;;1.30;;
75191;SDS011;63771;52.580;9.734;2023-03-13T14:38:54;0.90;;;0.90;;
75191;SDS011;63771;52.580;9.734;2023-03-13T14:41:22;1.75;;;1.13;;
75191;SDS011;63771;52.580;9.734;2023-03-13T14:43:50;0.90;;;0.90;;
75191;SDS011;63771;52.580;9.734;2023-03-13T14:48:44;2.75;;;1.00;;
75191;SDS011;63771;52.580;9.734;2023-03-13T14:51:14;1.63;;;1.43;;
75191;SDS011;63771;52.580;9.734;2023-03-13T14:56:30;1.17;;;1.02;;
75191;SDS011;63771;52.580;9.734;2023-03-13T15:01:40;2.00;;;1.10;;
75191;SDS011;63771;52.580;9.734;2023-03-13T15:04:05;0.90;;;0.90;;
75191;SDS011;63771;52.580;9.734;2023-03-13T15:06:31;1.30;;;1.20;;
75191;SDS011;63771;52.580;9.734;2023-03-13T15:11:33;1.10;;;1.05;;
75191;SDS011;63771;52.580;9.734;2023-03-13T15:14:01;0.93;;;0.93;;
75191;SDS011;63771;52.580;9.734;2023-03-13T15:16:27;1.00;;;1.00;;
75191;SDS011;63771;52.580;9.734;2023-03-13T15:18:53;2.72;;;1.27;;
75191;SDS011;63771;52.580;9.734;2023-03-13T15:23:50;1.85;;;1.42;;
75191;SDS011;63771;52.580;9.734;2023-03-13T15:26:17;3.03;;;1.40;;
75191;SDS011;63771;52.580;9.734;2023-03-13T15:28:43;1.15;;;1.00;;
75191;SDS011;63771;52.580;9.734;2023-03-13T15:31:10;0.82;;;0.82;;
75191;SDS011;63771;52.580;9.734;2023-03-13T15:33:37;0.93;;;0.93;;
75191;SDS011;63771;52.580;9.734;2023-03-13T15:36:02;1.67;;;1.10;;
75191;SDS011;63771;52.580;9.734;2023-03-13T15:38:28;2.25;;;0.98;;
75191;SDS011;63771;52.580;9.734;2023-03-13T15:40:53;0.90;;;0.90;;
75191;SDS011;63771;52.580;9.734;2023-03-13T15:43:19;0.93;;;0.93;;
75191;SDS011;63771;52.580;9.734;2023-03-13T15:45:46;2.00;;;0.68;;
75191;SDS011;63771;52.580;9.734;2023-03-13T15:48:19;3.47;;;1.00;;
75191;SDS011;63771;52.580;9.734;2023-03-13T15:50:53;2.80;;;1.13;;
75191;SDS011;63771;52.580;9.734;2023-03-13T15:53:23;2.13;;;0.90;;
75191;SDS011;63771;52.580;9.734;2023-03-13T15:55:54;1.05;;;1.05;;
75191;SDS011;63771;52.580;9.734;2023-03-13T15:58:22;0.93;;;0.88;;
75191;SDS011;63771;52.580;9.734;2023-03-13T16:00:48;1.98;;;1.00;;
75191;SDS011;63771;52.580;9.734;2023-03-13T16:03:15;1.33;;;0.70;;
75191;SDS011;63771;52.580;9.734;2023-03-13T16:05:43;1.25;;;1.25;;
75191;SDS011;63771;52.580;9.734;2023-03-13T16:08:11;3.55;;;1.10;;
75191;SDS011;63771;52.580;9.734;2023-03-13T16:10:38;1.10;;;1.00;;
75191;SDS011;63771;52.580;9.734;2023-03-13T16:13:04;1.20;;;1.05;;
75191;SDS011;63771;52.580;9.734;2023-03-13T16:15:29;3.65;;;1.20;;
75191;SDS011;63771;52.580;9.734;2023-03-13T16:17:55;1.30;;;0.90;;
75191;SDS011;63771;52.580;9.734;2023-03-13T16:20:21;1.50;;;1.40;;
75191;SDS011;63771;52.580;9.734;2023-03-13T16:22:47;0.82;;;0.82;;
75191;SDS011;63771;52.580;9.734;2023-03-13T16:25:13;1.10;;;1.00;;
75191;SDS011;63771;52.580;9.734;2023-03-13T16:27:39;1.00;;;0.85;;
75191;SDS011;63771;52.580;9.734;2023-03-13T16:30:11;2.75;;;1.27;;
75191;SDS011;63771;52.580;9.734;2023-03-13T16:32:40;4.68;;;1.00;;
75191;SDS011;63771;52.580;9.734;2023-03-13T16:35:06;1.43;;;1.10;;